createdAt,value
2019-04-11T00:00:55.866Z,1013.87
2019-04-11T00:01:56.321Z,1013.94
2019-04-11T00:02:55.845Z,1013.96
2019-04-11T00:03:55.839Z,1013.95
2019-04-11T00:04:56.648Z,1013.93
2019-04-11T00:05:55.991Z,1013.94
2019-04-11T00:06:56.123Z,1013.93
2019-04-11T00:07:58.054Z,1013.92
2019-04-11T00:08:56.467Z,1013.95
2019-04-11T00:09:56.761Z,1013.96
2019-04-11T00:10:55.757Z,1013.90
2019-04-11T00:11:55.745Z,1013.91
2019-04-11T00:12:56.927Z,1013.89
2019-04-11T00:13:55.802Z,1013.95
2019-04-11T00:14:56.038Z,1013.95
2019-04-11T00:15:55.698Z,1013.93
2019-04-11T00:16:55.687Z,1013.99
2019-04-11T00:17:56.505Z,1013.94
2019-04-11T00:18:56.841Z,1013.97
2019-04-11T00:19:55.859Z,1014.01
2019-04-11T00:20:56.161Z,1013.98
2019-04-11T00:21:55.631Z,1013.98
2019-04-11T00:22:55.619Z,1013.94
2019-04-11T00:23:56.592Z,1013.98
2019-04-11T00:24:55.605Z,1014.00
2019-04-11T00:25:55.927Z,1013.99
2019-04-11T00:26:55.574Z,1014.03
2019-04-11T00:27:55.563Z,1014.00
2019-04-11T00:28:56.266Z,1014.04
2019-04-11T00:29:55.548Z,1014.04
2019-04-11T00:30:56.607Z,1013.97
2019-04-11T00:31:55.520Z,1014.03
2019-04-11T00:32:56.048Z,1013.99
2019-04-11T00:33:56.332Z,1014.07
2019-04-11T00:34:55.500Z,1014.00
2019-04-11T00:35:55.694Z,1014.01
2019-04-11T00:36:55.464Z,1014.03
2019-04-11T00:37:55.451Z,1014.07
2019-04-11T00:38:55.444Z,1014.02
2019-04-11T00:39:56.270Z,1013.99
2019-04-11T00:40:55.449Z,1014.00
2019-04-11T00:41:56.442Z,1014.02
2019-04-11T00:42:55.397Z,1013.99
2019-04-11T00:43:56.639Z,1014.02
2019-04-11T00:44:55.373Z,1013.98
2019-04-11T00:45:56.088Z,1014.06
2019-04-11T00:46:56.348Z,1013.99
2019-04-11T00:47:55.384Z,1014.03
2019-04-11T00:48:55.328Z,1014.04
2019-04-11T00:49:55.318Z,1014.05
2019-04-11T00:50:55.967Z,1014.06
2019-04-11T00:51:56.183Z,1014.01
2019-04-11T00:52:55.823Z,1014.03
2019-04-11T00:53:55.277Z,1014.04
2019-04-11T00:54:55.402Z,1014.06
2019-04-11T00:55:55.713Z,1014.06
2019-04-11T00:56:55.243Z,1014.06
2019-04-11T00:57:55.232Z,1014.09
2019-04-11T00:58:56.091Z,1014.12
2019-04-11T00:59:56.424Z,1014.09
2019-04-11T01:00:55.572Z,1014.13
2019-04-11T01:01:55.188Z,1014.08
2019-04-11T01:02:55.895Z,1014.04
2019-04-11T01:03:55.795Z,1014.07
2019-04-11T01:04:55.151Z,1014.11
2019-04-11T01:05:55.569Z,1014.10
2019-04-11T01:06:55.333Z,1014.02
2019-04-11T01:07:56.230Z,1014.11
2019-04-11T01:08:55.813Z,1014.10
2019-04-11T01:09:55.095Z,1014.07
2019-04-11T01:10:55.254Z,1014.09
2019-04-11T01:11:56.155Z,1014.11
2019-04-11T01:12:55.067Z,1014.08
2019-04-11T01:13:55.743Z,1014.11
2019-04-11T01:14:55.312Z,1014.13
2019-04-11T01:15:55.036Z,1014.15
2019-04-11T01:16:55.017Z,1014.13
2019-04-11T01:17:55.953Z,1014.18
2019-04-11T01:18:55.210Z,1014.19
2019-04-11T01:19:55.297Z,1014.16
2019-04-11T01:20:55.694Z,1014.16
2019-04-11T01:21:55.067Z,1014.17
2019-04-11T01:22:54.951Z,1014.14
2019-04-11T01:23:55.454Z,1014.13
2019-04-11T01:24:55.760Z,1014.12
2019-04-11T01:25:55.008Z,1014.15
2019-04-11T01:26:54.914Z,1014.18
2019-04-11T01:27:54.900Z,1014.14
2019-04-11T01:28:55.397Z,1014.18
2019-04-11T01:29:55.697Z,1014.13
2019-04-11T01:30:55.491Z,1014.15
2019-04-11T01:31:54.858Z,1014.20
2019-04-11T01:32:54.954Z,1014.19
2019-04-11T01:33:55.978Z,1014.12
2019-04-11T01:34:55.094Z,1014.21
2019-04-11T01:35:55.390Z,1014.23
2019-04-11T01:36:55.489Z,1014.20
2019-04-11T01:37:55.731Z,1014.23
2019-04-11T01:38:54.828Z,1014.27
2019-04-11T01:39:54.768Z,1014.24
2019-04-11T01:40:54.750Z,1014.25
2019-04-11T01:41:55.169Z,1014.17
2019-04-11T01:42:55.516Z,1014.26
2019-04-11T01:44:00.937Z,1014.26
2019-04-11T01:44:56.789Z,1014.25
2019-04-11T01:45:55.916Z,1014.26
2019-04-11T01:46:54.690Z,1014.24
2019-04-11T01:47:55.292Z,1014.21
2019-04-11T01:48:55.612Z,1014.26
2019-04-11T01:49:54.648Z,1014.22
2019-04-11T01:50:54.638Z,1014.22
2019-04-11T01:51:54.634Z,1014.28
2019-04-11T01:52:55.022Z,1014.23
2019-04-11T01:53:55.342Z,1014.23
2019-04-11T01:54:54.592Z,1014.23
2019-04-11T01:55:54.712Z,1014.24
2019-04-11T01:56:55.736Z,1014.26
2019-04-11T01:57:54.558Z,1014.24
2019-04-11T01:58:55.245Z,1014.30
2019-04-11T01:59:55.552Z,1014.28
2019-04-11T02:00:54.743Z,1014.32
2019-04-11T02:01:54.883Z,1014.36
2019-04-11T02:02:54.897Z,1014.31
2019-04-11T02:03:55.283Z,1014.30
2019-04-11T02:04:54.481Z,1014.29
2019-04-11T02:05:54.470Z,1014.36
2019-04-11T02:06:54.459Z,1014.30
2019-04-11T02:07:55.290Z,1014.34
2019-04-11T02:08:55.558Z,1014.29
2019-04-11T02:09:54.746Z,1014.37
2019-04-11T02:10:54.414Z,1014.35
2019-04-11T02:11:54.403Z,1014.36
2019-04-11T02:12:55.292Z,1014.35
2019-04-11T02:14:05.177Z,1014.35
2019-04-11T02:14:55.598Z,1014.40
2019-04-11T02:15:56.796Z,1014.43
2019-04-11T02:16:54.346Z,1014.41
2019-04-11T02:17:55.035Z,1014.42
2019-04-11T02:18:54.325Z,1014.42
2019-04-11T02:19:54.454Z,1014.49
2019-04-11T02:20:55.495Z,1014.47
2019-04-11T02:21:54.293Z,1014.50
2019-04-11T02:22:54.944Z,1014.50
2019-04-11T02:23:55.236Z,1014.49
2019-04-11T02:24:54.361Z,1014.49
2019-04-11T02:25:54.535Z,1014.56
2019-04-11T02:26:54.622Z,1014.49
2019-04-11T02:27:54.232Z,1014.49
2019-04-11T02:28:55.187Z,1014.56
2019-04-11T02:29:55.125Z,1014.56
2019-04-11T02:30:55.847Z,1014.52
2019-04-11T02:31:54.974Z,1014.51
2019-04-11T02:32:54.187Z,1014.57
2019-04-11T02:33:55.235Z,1014.56
2019-04-11T02:34:57.087Z,1014.61
2019-04-11T02:35:56.461Z,1014.58
2019-04-11T02:36:55.843Z,1014.62
2019-04-11T02:37:54.878Z,1014.60
2019-04-11T02:38:57.486Z,1014.62
2019-04-11T02:39:56.001Z,1014.66
2019-04-11T02:40:55.135Z,1014.63
2019-04-11T02:41:54.930Z,1014.62
2019-04-11T02:42:54.882Z,1014.64
2019-04-11T02:43:55.059Z,1014.68
2019-04-11T02:45:10.905Z,1014.71
2019-04-11T02:46:09.070Z,1014.64
2019-04-11T02:47:01.842Z,1014.64
2019-04-11T02:47:56.403Z,1014.72
2019-04-11T02:48:54.494Z,1014.73
2019-04-11T02:49:55.084Z,1014.69
2019-04-11T02:50:54.309Z,1014.68
2019-04-11T02:51:55.730Z,1014.71
2019-04-11T02:52:54.042Z,1014.71
2019-04-11T02:53:54.979Z,1014.72
2019-04-11T02:54:54.519Z,1014.78
2019-04-11T02:55:54.337Z,1014.72
2019-04-11T02:56:54.838Z,1014.74
2019-04-11T02:57:54.329Z,1014.75
2019-04-11T02:58:54.556Z,1014.74
2019-04-11T02:59:56.095Z,1014.75
2019-04-11T03:00:55.905Z,1014.79
2019-04-11T03:01:53.845Z,1014.76
2019-04-11T03:02:53.842Z,1014.76
2019-04-11T03:03:54.133Z,1014.80
2019-04-11T03:04:55.608Z,1014.79
2019-04-11T03:05:55.432Z,1014.88
2019-04-11T03:06:55.024Z,1014.85
2019-04-11T03:07:54.097Z,1014.82
2019-04-11T03:08:55.055Z,1014.83
2019-04-11T03:09:55.731Z,1014.81
2019-04-11T03:10:55.622Z,1014.88
2019-04-11T03:11:54.633Z,1014.84
2019-04-11T03:12:54.594Z,1014.73
2019-04-11T03:13:54.862Z,1014.78
2019-04-11T03:15:09.246Z,1014.82
2019-04-11T03:16:10.134Z,1014.76
2019-04-11T03:17:02.472Z,1014.80
2019-04-11T03:17:59.186Z,1014.82
2019-04-11T03:19:12.994Z,1014.82
2019-04-11T03:20:08.293Z,1014.82
2019-04-11T03:20:57.690Z,1014.83
2019-04-11T03:21:56.586Z,1014.86
2019-04-11T03:22:58.205Z,1014.88
2019-04-11T03:23:56.064Z,1014.86
2019-04-11T03:24:55.398Z,1014.86
2019-04-11T03:25:54.371Z,1014.82
2019-04-11T03:26:54.912Z,1014.87
2019-04-11T03:27:54.169Z,1014.85
2019-04-11T03:28:56.206Z,1014.86
2019-04-11T03:29:54.219Z,1014.86
2019-04-11T03:31:06.812Z,1014.83
2019-04-11T03:33:58.117Z,1014.80
2019-04-11T03:34:37.724Z,1014.79
2019-04-11T03:36:00.270Z,1014.80
2019-04-11T03:38:18.430Z,1014.81
2019-04-11T03:39:15.631Z,1014.81
2019-04-11T03:40:15.146Z,1014.84
2019-04-11T03:41:12.225Z,1014.88
2019-04-11T03:42:13.001Z,1014.86
2019-04-11T03:43:09.369Z,1014.84
2019-04-11T03:44:04.302Z,1014.84
2019-04-11T03:45:15.218Z,1014.93
2019-04-11T03:46:14.232Z,1014.88
2019-04-11T03:47:11.184Z,1014.88
2019-04-11T03:48:10.091Z,1014.91
2019-04-11T03:49:03.887Z,1014.95
2019-04-11T03:50:01.718Z,1014.94
2019-04-11T03:50:57.134Z,1014.94
2019-04-11T03:51:54.882Z,1014.98
2019-04-11T03:52:54.057Z,1014.91
2019-04-11T03:53:53.636Z,1015.00
2019-04-11T03:54:53.992Z,1014.96
2019-04-11T03:55:53.786Z,1015.00
2019-04-11T03:56:53.800Z,1015.02
2019-04-11T03:57:55.971Z,1014.99
2019-04-11T03:58:53.536Z,1015.13
2019-04-11T03:59:54.536Z,1015.10
2019-04-11T04:00:56.872Z,1015.16
2019-04-11T04:01:54.921Z,1015.06
2019-04-11T04:02:55.121Z,1015.15
2019-04-11T04:03:54.227Z,1015.13
2019-04-11T04:04:53.938Z,1015.11
2019-04-11T04:05:54.915Z,1015.14
2019-04-11T04:06:53.122Z,1015.17
2019-04-11T04:07:55.014Z,1015.15
2019-04-11T04:08:55.244Z,1015.13
2019-04-11T04:09:53.733Z,1015.17
2019-04-11T04:10:53.665Z,1015.21
2019-04-11T04:11:54.557Z,1015.18
2019-04-11T04:12:53.652Z,1015.20
2019-04-11T04:13:53.930Z,1015.17
2019-04-11T04:14:53.936Z,1015.21
2019-04-11T04:16:02.768Z,1015.23
2019-04-11T04:16:56.487Z,1015.20
2019-04-11T04:17:55.242Z,1015.24
2019-04-11T04:18:54.196Z,1015.26
2019-04-11T04:19:54.295Z,1015.20
2019-04-11T04:20:53.334Z,1015.23
2019-04-11T04:21:53.291Z,1015.27
2019-04-11T04:22:54.403Z,1015.28
2019-04-11T04:23:54.598Z,1015.31
2019-04-11T04:24:53.847Z,1015.32
2019-04-11T04:25:54.326Z,1015.32
2019-04-11T04:26:54.620Z,1015.32
2019-04-11T04:27:54.266Z,1015.36
2019-04-11T04:28:53.478Z,1015.27
2019-04-11T04:29:57.263Z,1015.38
2019-04-11T04:30:54.465Z,1015.41
2019-04-11T04:31:53.262Z,1015.39
2019-04-11T04:32:54.592Z,1015.39
2019-04-11T04:33:53.464Z,1015.41
2019-04-11T04:34:53.272Z,1015.45
2019-04-11T04:35:53.151Z,1015.43
2019-04-11T04:36:53.749Z,1015.45
2019-04-11T04:37:54.411Z,1015.51
2019-04-11T04:38:52.767Z,1015.48
2019-04-11T04:40:14.863Z,1015.49
2019-04-11T04:41:07.357Z,1015.51
2019-04-11T04:42:01.225Z,1015.54
2019-04-11T04:42:56.245Z,1015.49
2019-04-11T04:43:54.663Z,1015.52
2019-04-11T04:44:53.881Z,1015.53
2019-04-11T04:46:08.741Z,1015.53
2019-04-11T04:47:07.789Z,1015.53
2019-04-11T04:47:58.866Z,1015.56
2019-04-11T04:48:54.012Z,1015.56
2019-04-11T04:49:54.214Z,1015.60
2019-04-11T04:50:55.031Z,1015.56
2019-04-11T04:51:53.325Z,1015.61
2019-04-11T04:52:53.611Z,1015.59
2019-04-11T04:53:52.604Z,1015.58
2019-04-11T04:54:53.379Z,1015.55
2019-04-11T04:55:54.245Z,1015.60
2019-04-11T04:56:54.421Z,1015.61
2019-04-11T04:57:53.246Z,1015.66
2019-04-11T04:58:53.959Z,1015.69
2019-04-11T04:59:53.229Z,1015.67
2019-04-11T05:00:54.214Z,1015.72
2019-04-11T05:01:53.263Z,1015.72
2019-04-11T05:02:52.502Z,1015.73
2019-04-11T05:03:54.047Z,1015.79
2019-04-11T05:04:54.164Z,1015.71
2019-04-11T05:05:52.998Z,1015.72
2019-04-11T05:06:54.052Z,1015.76
2019-04-11T05:07:53.915Z,1015.71
2019-04-11T05:08:52.435Z,1015.75
2019-04-11T05:09:52.423Z,1015.79
2019-04-11T05:10:53.483Z,1015.78
2019-04-11T05:11:53.091Z,1015.78
2019-04-11T05:12:52.392Z,1015.79
2019-04-11T05:13:52.378Z,1015.81
2019-04-11T05:14:54.033Z,1015.83
2019-04-11T05:16:04.696Z,1015.84
2019-04-11T05:16:54.574Z,1015.82
2019-04-11T05:17:53.353Z,1015.89
2019-04-11T05:18:52.557Z,1015.88
2019-04-11T05:19:52.312Z,1015.91
2019-04-11T05:20:52.764Z,1015.91
2019-04-11T05:21:52.291Z,1015.93
2019-04-11T05:22:52.431Z,1015.95
2019-04-11T05:23:52.267Z,1015.93
2019-04-11T05:24:52.255Z,1015.93
2019-04-11T05:25:53.027Z,1015.96
2019-04-11T05:26:52.337Z,1015.97
2019-04-11T05:27:52.228Z,1015.97
2019-04-11T05:28:52.989Z,1016.03
2019-04-11T05:29:52.200Z,1015.97
2019-04-11T05:30:53.201Z,1016.03
2019-04-11T05:31:52.180Z,1015.99
2019-04-11T05:32:52.207Z,1016.01
2019-04-11T05:33:52.156Z,1016.08
2019-04-11T05:34:53.081Z,1016.02
2019-04-11T05:35:52.184Z,1016.10
2019-04-11T05:36:53.269Z,1016.08
2019-04-11T05:37:52.118Z,1016.02
2019-04-11T05:38:52.680Z,1016.08
2019-04-11T05:39:52.529Z,1016.11
2019-04-11T05:40:52.400Z,1016.06
2019-04-11T05:41:52.076Z,1016.06
2019-04-11T05:42:54.217Z,1016.11
2019-04-11T05:43:52.043Z,1016.13
2019-04-11T05:44:52.040Z,1016.10
2019-04-11T05:45:54.712Z,1016.08
2019-04-11T05:46:57.249Z,1016.05
2019-04-11T05:47:54.961Z,1016.09
2019-04-11T05:48:54.989Z,1016.10
2019-04-11T05:49:52.975Z,1016.08
2019-04-11T05:50:52.965Z,1016.12
2019-04-11T05:51:55.708Z,1016.11
2019-04-11T05:52:52.942Z,1016.11
2019-04-11T05:53:54.458Z,1016.13
2019-04-11T05:54:52.555Z,1016.11
2019-04-11T05:55:53.092Z,1016.11
2019-04-11T05:56:55.194Z,1016.15
2019-04-11T05:57:52.886Z,1016.14
2019-04-11T05:58:51.877Z,1016.15
2019-04-11T05:59:54.392Z,1016.14
2019-04-11T06:00:53.258Z,1016.13
2019-04-11T06:01:53.010Z,1016.17
2019-04-11T06:02:53.231Z,1016.16
2019-04-11T06:03:52.536Z,1016.16
2019-04-11T06:04:55.918Z,1016.14
2019-04-11T06:05:52.080Z,1016.11
2019-04-11T06:06:52.802Z,1016.16
2019-04-11T06:07:55.627Z,1016.17
2019-04-11T06:08:54.161Z,1016.18
2019-04-11T06:09:52.753Z,1016.19
2019-04-11T06:10:52.519Z,1016.15
2019-04-11T06:11:54.452Z,1016.17
2019-04-11T06:12:52.624Z,1016.21
2019-04-11T06:13:51.712Z,1016.17
2019-04-11T06:14:51.701Z,1016.24
2019-04-11T06:15:51.691Z,1016.19
2019-04-11T06:16:55.266Z,1016.24
2019-04-11T06:17:51.675Z,1016.24
2019-04-11T06:18:52.228Z,1016.29
2019-04-11T06:19:51.673Z,1016.28
2019-04-11T06:20:51.634Z,1016.28
2019-04-11T06:21:52.599Z,1016.22
2019-04-11T06:22:51.619Z,1016.26
2019-04-11T06:23:51.828Z,1016.23
2019-04-11T06:24:52.284Z,1016.25
2019-04-11T06:25:51.578Z,1016.28
2019-04-11T06:26:51.565Z,1016.33
2019-04-11T06:27:51.599Z,1016.31
2019-04-11T06:28:53.963Z,1016.32
2019-04-11T06:29:52.878Z,1016.31
2019-04-11T06:30:52.656Z,1016.34
2019-04-11T06:31:51.629Z,1016.36
2019-04-11T06:32:52.078Z,1016.29
2019-04-11T06:33:51.510Z,1016.36
2019-04-11T06:34:51.479Z,1016.30
2019-04-11T06:35:52.429Z,1016.37
2019-04-11T06:36:51.456Z,1016.37
2019-04-11T06:37:52.194Z,1016.34
2019-04-11T06:38:51.434Z,1016.31
2019-04-11T06:39:51.613Z,1016.35
2019-04-11T06:40:52.464Z,1016.30
2019-04-11T06:41:51.403Z,1016.37
2019-04-11T06:42:51.706Z,1016.42
2019-04-11T06:43:52.127Z,1016.41
2019-04-11T06:44:52.164Z,1016.45
2019-04-11T06:45:52.417Z,1016.45
2019-04-11T06:46:54.842Z,1016.37
2019-04-11T06:47:53.159Z,1016.40
2019-04-11T06:48:51.320Z,1016.44
2019-04-11T06:49:51.310Z,1016.48
2019-04-11T06:50:51.366Z,1016.45
2019-04-11T06:51:53.398Z,1016.48
2019-04-11T06:52:51.286Z,1016.44
2019-04-11T06:53:51.264Z,1016.46
2019-04-11T06:54:52.374Z,1016.44
2019-04-11T06:55:51.243Z,1016.42
2019-04-11T06:56:52.281Z,1016.46
2019-04-11T06:57:51.248Z,1016.52
2019-04-11T06:58:53.549Z,1016.45
2019-04-11T06:59:52.378Z,1016.46
2019-04-11T07:00:51.713Z,1016.47
2019-04-11T07:01:51.191Z,1016.52
2019-04-11T07:02:51.165Z,1016.47
2019-04-11T07:03:51.165Z,1016.41
2019-04-11T07:04:51.774Z,1016.48
2019-04-11T07:05:51.129Z,1016.52
2019-04-11T07:06:51.751Z,1016.53
2019-04-11T07:07:51.622Z,1016.53
2019-04-11T07:08:51.208Z,1016.55
2019-04-11T07:09:51.206Z,1016.50
2019-04-11T07:10:51.197Z,1016.49
2019-04-11T07:11:51.062Z,1016.52
2019-04-11T07:12:53.012Z,1016.52
2019-04-11T07:13:51.055Z,1016.51
2019-04-11T07:14:51.029Z,1016.52
2019-04-11T07:15:51.021Z,1016.53
2019-04-11T07:16:59.627Z,1016.53
2019-04-11T07:17:52.531Z,1016.53
2019-04-11T07:18:50.997Z,1016.55
2019-04-11T07:19:51.524Z,1016.52
2019-04-11T07:20:52.385Z,1016.49
2019-04-11T07:21:51.058Z,1016.52
2019-04-11T07:22:51.028Z,1016.55
2019-04-11T07:23:51.494Z,1016.61
2019-04-11T07:24:50.918Z,1016.57
2019-04-11T07:25:51.762Z,1016.58
2019-04-11T07:26:52.077Z,1016.55
2019-04-11T07:27:50.885Z,1016.58
2019-04-11T07:28:50.882Z,1016.61
2019-04-11T07:29:50.860Z,1016.60
2019-04-11T07:30:50.852Z,1016.55
2019-04-11T07:31:50.840Z,1016.57
2019-04-11T07:32:50.870Z,1016.56
2019-04-11T07:33:51.844Z,1016.62
2019-04-11T07:34:52.183Z,1016.58
2019-04-11T07:35:50.846Z,1016.63
2019-04-11T07:36:50.785Z,1016.55
2019-04-11T07:37:51.115Z,1016.57
2019-04-11T07:38:52.231Z,1016.62
2019-04-11T07:39:51.634Z,1016.58
2019-04-11T07:40:51.850Z,1016.61
2019-04-11T07:41:52.089Z,1016.59
2019-04-11T07:42:52.823Z,1016.62
2019-04-11T07:43:50.721Z,1016.64
2019-04-11T07:44:51.720Z,1016.65
2019-04-11T07:45:51.261Z,1016.60
2019-04-11T07:46:51.562Z,1016.58
2019-04-11T07:47:50.663Z,1016.59
2019-04-11T07:48:50.650Z,1016.61
2019-04-11T07:49:53.414Z,1016.62
2019-04-11T07:50:51.582Z,1016.58
2019-04-11T07:51:50.850Z,1016.63
2019-04-11T07:52:51.585Z,1016.64
2019-04-11T07:53:50.598Z,1016.60
2019-04-11T07:54:51.399Z,1016.64
2019-04-11T07:55:51.008Z,1016.67
2019-04-11T07:56:50.729Z,1016.63
2019-04-11T07:57:50.549Z,1016.62
2019-04-11T07:58:50.540Z,1016.62
2019-04-11T07:59:51.222Z,1016.63
2019-04-11T08:00:52.906Z,1016.59
2019-04-11T08:01:50.648Z,1016.64
2019-04-11T08:02:50.495Z,1016.54
2019-04-11T08:03:51.292Z,1016.66
2019-04-11T08:04:50.485Z,1016.60
2019-04-11T08:05:50.461Z,1016.62
2019-04-11T08:06:50.456Z,1016.64
2019-04-11T08:07:51.433Z,1016.64
2019-04-11T08:08:51.414Z,1016.69
2019-04-11T08:09:50.639Z,1016.67
2019-04-11T08:10:50.604Z,1016.64
2019-04-11T08:11:50.397Z,1016.65
2019-04-11T08:12:50.384Z,1016.70
2019-04-11T08:13:53.111Z,1016.71
2019-04-11T08:14:51.095Z,1016.69
2019-04-11T08:15:50.347Z,1016.68
2019-04-11T08:16:51.097Z,1016.73
2019-04-11T08:17:50.327Z,1016.75
2019-04-11T08:18:50.930Z,1016.70
2019-04-11T08:19:51.244Z,1016.72
2019-04-11T08:20:50.294Z,1016.71
2019-04-11T08:21:50.449Z,1016.73
2019-04-11T08:22:51.475Z,1016.74
2019-04-11T08:23:50.262Z,1016.76
2019-04-11T08:24:51.043Z,1016.79
2019-04-11T08:25:50.322Z,1016.65
2019-04-11T08:26:50.502Z,1016.75
2019-04-11T08:27:58.313Z,1016.72
2019-04-11T08:29:01.354Z,1016.79
2019-04-11T08:29:52.012Z,1016.78
2019-04-11T08:30:50.952Z,1016.76
2019-04-11T08:31:51.519Z,1016.78
2019-04-11T08:32:50.160Z,1016.74
2019-04-11T08:33:50.960Z,1016.79
2019-04-11T08:34:51.296Z,1016.79
2019-04-11T08:35:52.023Z,1016.76
2019-04-11T08:36:50.563Z,1016.74
2019-04-11T08:37:50.102Z,1016.77
2019-04-11T08:38:50.866Z,1016.73
2019-04-11T08:39:50.130Z,1016.77
2019-04-11T08:40:51.287Z,1016.70
2019-04-11T08:41:50.118Z,1016.77
2019-04-11T08:42:50.855Z,1016.80
2019-04-11T08:43:51.189Z,1016.78
2019-04-11T08:44:50.220Z,1016.78
2019-04-11T08:45:50.637Z,1016.78
2019-04-11T08:46:51.051Z,1016.78
2019-04-11T08:47:54.621Z,1016.81
2019-04-11T08:48:51.305Z,1016.82
2019-04-11T08:49:50.212Z,1016.79
2019-04-11T08:50:50.434Z,1016.85
2019-04-11T08:51:49.951Z,1016.76
2019-04-11T08:52:49.960Z,1016.80
2019-04-11T08:53:50.935Z,1016.78
2019-04-11T08:54:50.204Z,1016.84
2019-04-11T08:55:55.296Z,1016.85
2019-04-11T08:56:51.521Z,1016.75
2019-04-11T08:57:49.974Z,1016.74
2019-04-11T08:58:50.835Z,1016.77
2019-04-11T08:59:49.860Z,1016.81
2019-04-11T09:00:51.101Z,1016.79
2019-04-11T09:01:49.832Z,1016.77
2019-04-11T09:02:49.825Z,1016.84
2019-04-11T09:03:59.785Z,1016.80
2019-04-11T09:05:02.735Z,1016.70
2019-04-11T09:05:51.303Z,1016.66
2019-04-11T09:06:49.777Z,1016.70
2019-04-11T09:07:49.880Z,1016.81
2019-04-11T09:08:50.974Z,1016.64
2019-04-11T09:09:49.772Z,1016.70
2019-04-11T09:10:50.748Z,1016.83
2019-04-11T09:11:49.812Z,1016.85
2019-04-11T09:12:50.882Z,1016.77
2019-04-11T09:13:49.698Z,1016.90
2019-04-11T09:14:50.612Z,1016.75
2019-04-11T09:15:50.851Z,1016.70
2019-04-11T09:16:49.958Z,1016.87
2019-04-11T09:17:58.972Z,1016.97
2019-04-11T09:18:50.647Z,1016.97
2019-04-11T09:19:49.635Z,1016.98
2019-04-11T09:20:49.649Z,1016.92
2019-04-11T09:21:50.762Z,1016.94
2019-04-11T09:22:49.601Z,1016.95
2019-04-11T09:23:50.175Z,1016.93
2019-04-11T09:24:50.562Z,1016.96
2019-04-11T09:25:51.730Z,1016.93
2019-04-11T09:26:49.883Z,1016.85
2019-04-11T09:27:49.543Z,1016.89
2019-04-11T09:28:49.595Z,1016.97
2019-04-11T09:29:50.363Z,1016.92
2019-04-11T09:30:49.509Z,1016.93
2019-04-11T09:31:49.571Z,1016.90
2019-04-11T09:32:50.651Z,1016.79
2019-04-11T09:33:49.476Z,1016.90
2019-04-11T09:34:50.128Z,1016.85
2019-04-11T09:35:49.454Z,1016.88
2019-04-11T09:36:49.453Z,1016.93
2019-04-11T09:37:49.671Z,1016.94
2019-04-11T09:38:50.661Z,1016.92
2019-04-11T09:39:49.415Z,1016.85
2019-04-11T09:40:50.147Z,1016.88
2019-04-11T09:41:49.401Z,1016.94
2019-04-11T09:42:49.378Z,1016.85
2019-04-11T09:43:50.479Z,1016.90
2019-04-11T09:44:49.371Z,1016.91
2019-04-11T09:45:50.867Z,1016.92
2019-04-11T09:46:50.529Z,1016.90
2019-04-11T09:47:49.835Z,1016.97
2019-04-11T09:48:50.389Z,1016.98
2019-04-11T09:49:49.424Z,1016.95
2019-04-11T09:50:49.289Z,1017.04
2019-04-11T09:51:49.876Z,1016.97
2019-04-11T09:52:49.615Z,1016.97
2019-04-11T09:53:49.257Z,1016.89
2019-04-11T09:54:50.490Z,1016.95
2019-04-11T09:55:50.044Z,1016.57
2019-04-11T09:56:49.236Z,1016.91
2019-04-11T09:57:50.307Z,1016.90
2019-04-11T09:58:49.717Z,1016.90
2019-04-11T09:59:49.723Z,1016.88
2019-04-11T10:00:49.180Z,1016.95
2019-04-11T10:01:49.611Z,1016.68
2019-04-11T10:02:50.459Z,1016.58
2019-04-11T10:03:49.146Z,1016.62
2019-04-11T10:04:50.191Z,1016.96
2019-04-11T10:05:50.313Z,1016.70
2019-04-11T10:06:49.115Z,1016.96
2019-04-11T10:07:50.215Z,1016.91
2019-04-11T10:08:49.225Z,1016.91
2019-04-11T10:09:50.421Z,1016.94
2019-04-11T10:10:49.069Z,1016.87
2019-04-11T10:11:49.061Z,1016.92
2019-04-11T10:12:49.079Z,1016.51
2019-04-11T10:13:49.149Z,1016.51
2019-04-11T10:14:50.094Z,1016.51
2019-04-11T10:15:49.016Z,1016.51
2019-04-11T10:16:49.006Z,1016.87
2019-04-11T10:17:49.003Z,1016.79
2019-04-11T10:18:49.515Z,1016.86
2019-04-11T10:19:48.972Z,1016.83
2019-04-11T10:20:48.964Z,1016.86
2019-04-11T10:21:49.968Z,1016.91
2019-04-11T10:22:49.101Z,1016.81
2019-04-11T10:23:49.295Z,1016.78
2019-04-11T10:24:48.917Z,1016.76
2019-04-11T10:25:49.734Z,1016.88
2019-04-11T10:26:49.984Z,1016.86
2019-04-11T10:27:49.070Z,1016.87
2019-04-11T10:28:49.580Z,1016.83
2019-04-11T10:29:48.865Z,1016.81
2019-04-11T10:30:48.870Z,1016.73
2019-04-11T10:31:48.843Z,1016.67
2019-04-11T10:32:49.689Z,1016.79
2019-04-11T10:33:49.054Z,1016.67
2019-04-11T10:34:49.967Z,1016.67
2019-04-11T10:35:48.799Z,1016.68
2019-04-11T10:36:49.573Z,1016.68
2019-04-11T10:37:49.802Z,1016.67
2019-04-11T10:38:48.893Z,1016.72
2019-04-11T10:39:49.265Z,1016.69
2019-04-11T10:40:48.746Z,1016.64
2019-04-11T10:41:49.150Z,1016.70
2019-04-11T10:42:48.779Z,1016.74
2019-04-11T10:43:49.622Z,1016.77
2019-04-11T10:44:49.822Z,1016.74
2019-04-11T10:45:48.997Z,1016.87
2019-04-11T10:46:49.533Z,1016.84
2019-04-11T10:47:49.297Z,1016.90
2019-04-11T10:48:50.287Z,1016.93
2019-04-11T10:49:48.650Z,1016.96
2019-04-11T10:50:48.708Z,1016.93
2019-04-11T10:51:49.730Z,1016.91
2019-04-11T10:52:48.922Z,1016.89
2019-04-11T10:53:49.221Z,1016.94
2019-04-11T10:54:49.158Z,1016.97
2019-04-11T10:55:49.576Z,1016.93
2019-04-11T10:56:49.546Z,1016.89
2019-04-11T10:57:48.744Z,1016.92
2019-04-11T10:58:49.056Z,1016.97
2019-04-11T10:59:49.044Z,1016.91
2019-04-11T11:00:48.537Z,1016.87
2019-04-11T11:01:48.567Z,1016.92
2019-04-11T11:02:49.381Z,1016.92
2019-04-11T11:03:49.346Z,1016.88
2019-04-11T11:04:48.573Z,1016.93
2019-04-11T11:05:49.332Z,1017.02
2019-04-11T11:06:48.473Z,1016.97
2019-04-11T11:07:48.906Z,1016.98
2019-04-11T11:08:48.460Z,1017.01
2019-04-11T11:09:48.451Z,1017.00
2019-04-11T11:10:48.432Z,1016.99
2019-04-11T11:11:48.500Z,1017.01
2019-04-11T11:12:49.554Z,1017.01
2019-04-11T11:13:48.410Z,1016.96
2019-04-11T11:14:49.047Z,1017.11
2019-04-11T11:15:49.711Z,1017.03
2019-04-11T11:16:48.678Z,1017.02
2019-04-11T11:18:20.266Z,1017.02
2019-04-11T11:19:21.125Z,1017.01
2019-04-11T11:19:59.323Z,1017.01
2019-04-11T11:20:55.233Z,1016.94
2019-04-11T11:21:49.317Z,1016.98
2019-04-11T11:22:48.308Z,1016.96
2019-04-11T11:23:49.284Z,1017.01
2019-04-11T11:24:48.286Z,1016.95
2019-04-11T11:25:50.025Z,1016.92
2019-04-11T11:26:52.082Z,1017.01
2019-04-11T11:27:50.286Z,1016.96
2019-04-11T11:28:48.778Z,1016.99
2019-04-11T11:29:48.404Z,1017.02
2019-04-11T11:30:49.484Z,1017.02
2019-04-11T11:31:49.196Z,1017.07
2019-04-11T11:32:48.205Z,1017.04
2019-04-11T11:33:49.022Z,1017.00
2019-04-11T11:34:51.271Z,1017.01
2019-04-11T11:35:48.173Z,1016.99
2019-04-11T11:36:48.162Z,1016.97
2019-04-11T11:37:49.231Z,1016.96
2019-04-11T11:38:48.143Z,1016.99
2019-04-11T11:39:49.095Z,1016.93
2019-04-11T11:40:48.120Z,1017.06
2019-04-11T11:41:48.956Z,1016.97
2019-04-11T11:42:48.099Z,1016.98
2019-04-11T11:43:48.798Z,1016.94
2019-04-11T11:44:48.824Z,1016.98
2019-04-11T11:45:51.894Z,1017.03
2019-04-11T11:46:50.068Z,1017.00
2019-04-11T11:47:49.032Z,1016.99
2019-04-11T11:48:52.241Z,1017.02
2019-04-11T11:49:57.015Z,1016.99
2019-04-11T11:50:50.580Z,1016.95
2019-04-11T11:51:48.009Z,1016.86
2019-04-11T11:52:48.951Z,1016.97
2019-04-11T11:53:49.004Z,1016.89
2019-04-11T11:54:48.215Z,1016.94
2019-04-11T11:55:47.967Z,1016.92
2019-04-11T11:56:48.933Z,1016.81
2019-04-11T11:57:47.945Z,1016.77
2019-04-11T11:58:53.442Z,1016.67
2019-04-11T11:59:48.933Z,1016.83
2019-04-11T12:00:50.050Z,1016.75
2019-04-11T12:01:50.766Z,1016.67
2019-04-11T12:02:49.120Z,1016.68
2019-04-11T12:03:48.760Z,1016.72
2019-04-11T12:04:48.501Z,1016.64
2019-04-11T12:05:50.224Z,1016.68
2019-04-11T12:06:49.597Z,1016.74
2019-04-11T12:07:47.841Z,1016.72
2019-04-11T12:08:49.316Z,1016.74